createdAt,value
2022-11-29T00:01:41.160Z,8.98
2022-11-29T00:04:09.494Z,8.40
2022-11-29T00:06:40.030Z,8.52
2022-11-29T00:09:11.605Z,8.30
2022-11-29T00:11:58.619Z,8.18
2022-11-29T00:14:28.125Z,7.80
2022-11-29T00:16:59.304Z,8.48
2022-11-29T00:19:27.748Z,8.02
2022-11-29T00:21:57.513Z,8.40
2022-11-29T00:24:25.843Z,8.00
2022-11-29T00:26:54.016Z,7.35
2022-11-29T00:29:22.394Z,7.38
2022-11-29T00:31:50.586Z,7.90
2022-11-29T00:34:18.845Z,7.63
2022-11-29T00:36:47.064Z,8.02
2022-11-29T00:39:16.667Z,7.20
2022-11-29T00:41:44.996Z,7.00
2022-11-29T00:44:19.691Z,7.10
2022-11-29T00:46:48.938Z,8.15
2022-11-29T00:49:17.267Z,8.00
2022-11-29T00:51:45.489Z,7.30
2022-11-29T00:54:13.760Z,6.95
2022-11-29T00:56:43.920Z,8.10
2022-11-29T00:59:12.192Z,7.43
2022-11-29T01:01:40.446Z,7.00
2022-11-29T01:04:08.724Z,6.77
2022-11-29T01:06:37.253Z,6.90
2022-11-29T01:09:05.896Z,7.50
2022-11-29T01:11:34.273Z,7.22
2022-11-29T01:14:05.143Z,6.70
2022-11-29T01:16:33.797Z,7.60
2022-11-29T01:19:02.606Z,6.60
2022-11-29T01:21:31.602Z,7.60
2022-11-29T01:24:01.609Z,6.65
2022-11-29T01:26:31.594Z,7.25
2022-11-29T01:29:01.164Z,7.95
2022-11-29T01:31:33.172Z,7.70
2022-11-29T01:34:04.163Z,7.95
2022-11-29T01:36:32.582Z,7.88
2022-11-29T01:39:01.793Z,7.32
2022-11-29T01:41:32.413Z,7.93
2022-11-29T01:44:07.007Z,7.43
2022-11-29T01:46:39.228Z,6.80
2022-11-29T01:49:12.671Z,6.68
2022-11-29T01:51:43.955Z,6.90
2022-11-29T01:54:13.591Z,7.18
2022-11-29T01:56:42.784Z,8.05
2022-11-29T01:59:15.544Z,7.60
2022-11-29T02:01:45.223Z,8.10
2022-11-29T02:04:13.827Z,7.22
2022-11-29T02:06:43.663Z,8.25
2022-11-29T02:09:20.235Z,7.28
2022-11-29T02:12:10.075Z,7.38
2022-11-29T02:15:05.438Z,7.35
2022-11-29T02:17:45.456Z,7.82
2022-11-29T02:21:05.640Z,7.10
2022-11-29T02:24:19.863Z,7.13
2022-11-29T02:27:13.113Z,7.63
2022-11-29T02:30:14.318Z,7.30
2022-11-29T02:33:39.847Z,6.88
2022-11-29T02:36:26.487Z,6.72
2022-11-29T02:39:24.534Z,6.68
2022-11-29T02:42:23.388Z,7.43
2022-11-29T02:45:02.856Z,7.27
2022-11-29T02:47:47.487Z,6.77
2022-11-29T02:50:25.476Z,7.70
2022-11-29T02:53:05.026Z,7.40
2022-11-29T02:55:40.584Z,7.20
2022-11-29T02:58:18.064Z,6.57
2022-11-29T03:00:54.520Z,6.90
2022-11-29T03:03:27.151Z,7.40
2022-11-29T03:06:05.729Z,8.27
2022-11-29T03:08:41.029Z,8.25
2022-11-29T03:11:19.590Z,7.90
2022-11-29T03:13:56.956Z,9.85
2022-11-29T03:16:43.892Z,9.02
2022-11-29T03:19:37.893Z,9.00
2022-11-29T03:22:13.175Z,8.70
2022-11-29T03:24:52.074Z,8.52
2022-11-29T03:27:25.842Z,9.80
2022-11-29T03:30:00.626Z,8.67
2022-11-29T03:32:34.200Z,9.43
2022-11-29T03:35:08.792Z,9.40
2022-11-29T03:37:47.886Z,9.53
2022-11-29T03:40:22.339Z,9.50
2022-11-29T03:42:56.021Z,9.93
2022-11-29T03:45:30.123Z,9.00
2022-11-29T03:48:04.972Z,8.45
2022-11-29T03:50:38.827Z,9.65
2022-11-29T03:53:15.879Z,8.90
2022-11-29T03:55:55.146Z,9.90
2022-11-29T03:58:41.855Z,10.63
2022-11-29T04:01:53.724Z,8.93
2022-11-29T04:04:44.757Z,9.48
2022-11-29T04:07:26.919Z,9.48
2022-11-29T04:10:12.886Z,9.75
2022-11-29T04:13:10.630Z,8.10
2022-11-29T04:16:14.282Z,10.88
2022-11-29T04:19:02.425Z,9.63
2022-11-29T04:21:46.675Z,9.50
2022-11-29T04:24:47.478Z,9.20
2022-11-29T04:27:38.445Z,9.90
2022-11-29T04:30:18.385Z,8.68
2022-11-29T04:33:24.123Z,10.25
2022-11-29T04:36:10.253Z,9.07
2022-11-29T04:38:55.359Z,9.98
2022-11-29T04:41:45.263Z,8.18
2022-11-29T04:44:28.870Z,8.90
2022-11-29T04:47:29.822Z,8.97
2022-11-29T04:50:28.315Z,8.73
2022-11-29T04:53:22.860Z,8.60
2022-11-29T04:55:58.973Z,8.83
2022-11-29T04:58:35.845Z,9.07
2022-11-29T05:01:13.491Z,8.57
2022-11-29T05:03:52.469Z,8.43
2022-11-29T05:06:30.583Z,7.82
2022-11-29T05:09:06.505Z,8.00
2022-11-29T05:11:47.295Z,8.20
2022-11-29T05:14:29.586Z,8.70
2022-11-29T05:17:09.721Z,8.20
2022-11-29T05:19:56.087Z,8.70
2022-11-29T05:22:33.151Z,8.85
2022-11-29T05:25:20.132Z,8.55
2022-11-29T05:27:53.579Z,8.55
2022-11-29T05:30:23.709Z,7.50
2022-11-29T05:32:58.573Z,7.93
2022-11-29T05:35:53.699Z,8.75
2022-11-29T05:38:46.005Z,8.52
2022-11-29T05:41:26.883Z,8.40
2022-11-29T05:44:08.557Z,8.52
2022-11-29T05:46:47.135Z,8.60
2022-11-29T05:49:24.314Z,7.93
2022-11-29T05:52:16.696Z,7.93
2022-11-29T05:54:52.357Z,7.80
2022-11-29T05:57:30.389Z,7.93
2022-11-29T06:00:00.148Z,7.75
2022-11-29T06:02:37.140Z,7.60
2022-11-29T06:05:13.291Z,8.80
2022-11-29T06:07:51.876Z,8.15
2022-11-29T06:10:25.052Z,8.20
2022-11-29T06:13:04.512Z,8.40
2022-11-29T06:16:08.938Z,8.15
2022-11-29T06:19:00.105Z,9.02
2022-11-29T06:21:40.195Z,8.60
2022-11-29T06:24:26.141Z,8.25
2022-11-29T06:27:11.986Z,8.27
2022-11-29T06:29:49.210Z,8.20
2022-11-29T06:32:30.650Z,7.65
2022-11-29T06:35:04.126Z,9.38
2022-11-29T06:37:38.628Z,8.35
2022-11-29T06:40:12.308Z,8.27
2022-11-29T06:42:40.509Z,8.90
2022-11-29T06:45:11.621Z,9.90
2022-11-29T06:47:44.608Z,9.48
2022-11-29T06:50:31.188Z,9.70
2022-11-29T06:53:07.800Z,8.38
2022-11-29T06:55:45.343Z,7.38
2022-11-29T06:58:34.442Z,7.43
2022-11-29T07:01:19.175Z,8.50
2022-11-29T07:04:08.473Z,7.30
2022-11-29T07:06:37.228Z,7.97
2022-11-29T07:09:14.364Z,7.60
2022-11-29T07:11:44.923Z,7.00
2022-11-29T07:14:13.602Z,8.35
2022-11-29T07:16:55.834Z,8.38
2022-11-29T07:19:37.090Z,8.80
2022-11-29T07:22:15.735Z,8.18
2022-11-29T07:24:58.601Z,9.20
2022-11-29T07:27:34.542Z,9.50
2022-11-29T07:30:12.504Z,8.53
2022-11-29T07:32:52.880Z,9.20
2022-11-29T07:35:33.893Z,9.30
2022-11-29T07:38:10.863Z,9.00
2022-11-29T07:40:46.764Z,9.48
2022-11-29T07:43:26.792Z,8.98
2022-11-29T07:45:56.159Z,9.20
2022-11-29T07:48:24.572Z,9.60
2022-11-29T07:50:52.803Z,9.98
2022-11-29T07:53:23.061Z,9.77
2022-11-29T07:55:51.973Z,9.85
2022-11-29T07:58:21.978Z,10.50
2022-11-29T08:00:50.337Z,11.10
2022-11-29T08:03:18.566Z,10.80
2022-11-29T08:05:48.334Z,10.83
2022-11-29T08:08:16.799Z,10.48
2022-11-29T08:10:45.037Z,10.25
2022-11-29T08:13:13.297Z,10.00
2022-11-29T08:15:46.872Z,9.25
2022-11-29T08:18:15.655Z,10.02
2022-11-29T08:20:44.338Z,8.75
2022-11-29T08:23:14.318Z,10.07
2022-11-29T08:25:42.616Z,10.10
2022-11-29T08:28:10.869Z,8.70
2022-11-29T08:30:39.529Z,9.88
2022-11-29T08:33:09.172Z,9.32
2022-11-29T08:35:37.369Z,8.90
2022-11-29T08:38:05.660Z,9.52
2022-11-29T08:40:33.943Z,8.90
2022-11-29T08:43:02.178Z,8.80
2022-11-29T08:45:30.509Z,9.73
2022-11-29T08:47:58.847Z,8.93
2022-11-29T08:50:28.461Z,9.88
2022-11-29T08:53:16.353Z,9.25
2022-11-29T08:55:46.562Z,9.98
2022-11-29T08:58:16.976Z,9.00
2022-11-29T09:00:47.165Z,9.40
2022-11-29T09:03:33.349Z,9.13
2022-11-29T09:06:12.238Z,8.85
2022-11-29T09:08:43.583Z,7.68
2022-11-29T09:11:13.935Z,8.80
2022-11-29T09:13:42.932Z,7.70
2022-11-29T09:16:13.718Z,7.88
2022-11-29T09:18:44.869Z,7.60
2022-11-29T09:21:18.640Z,7.63
2022-11-29T09:23:47.229Z,9.20
2022-11-29T09:26:19.412Z,8.48
2022-11-29T09:28:48.040Z,8.23
2022-11-29T09:31:17.655Z,7.32
2022-11-29T09:33:46.647Z,8.13
2022-11-29T09:36:15.551Z,8.15
2022-11-29T09:38:45.123Z,7.65
2022-11-29T09:41:32.351Z,9.32
2022-11-29T09:44:09.887Z,8.55
2022-11-29T09:46:58.621Z,7.45
2022-11-29T09:49:55.015Z,8.35
2022-11-29T09:52:35.055Z,7.72
2022-11-29T09:55:20.501Z,7.65
2022-11-29T09:57:50.465Z,7.20
2022-11-29T10:00:20.957Z,8.10
2022-11-29T10:02:54.211Z,7.03
2022-11-29T10:05:28.471Z,7.30
2022-11-29T10:08:01.484Z,7.72
2022-11-29T10:10:37.718Z,6.53
2022-11-29T10:13:17.025Z,7.28
2022-11-29T10:15:48.539Z,7.00
2022-11-29T10:18:20.493Z,6.70
2022-11-29T10:20:50.892Z,7.43
2022-11-29T10:23:24.647Z,6.40
2022-11-29T10:25:56.104Z,6.10
2022-11-29T10:28:30.538Z,6.65
2022-11-29T10:31:07.310Z,6.53
2022-11-29T10:33:40.592Z,7.93
2022-11-29T10:36:20.900Z,6.32
2022-11-29T10:38:50.379Z,6.10
2022-11-29T10:41:23.803Z,7.03
2022-11-29T10:43:53.063Z,7.13
2022-11-29T10:46:32.254Z,6.72
2022-11-29T10:49:03.829Z,6.10
2022-11-29T10:51:33.141Z,6.57
2022-11-29T10:54:17.072Z,6.70
2022-11-29T10:56:48.636Z,7.13
2022-11-29T10:59:22.630Z,6.30
2022-11-29T11:01:51.739Z,6.55
2022-11-29T11:04:28.917Z,6.70
2022-11-29T11:07:01.093Z,7.68
2022-11-29T11:09:36.133Z,8.45
2022-11-29T11:12:08.960Z,7.90
2022-11-29T11:14:39.391Z,7.80
2022-11-29T11:17:25.870Z,6.85
2022-11-29T11:20:00.864Z,7.83
2022-11-29T11:22:31.321Z,8.40
2022-11-29T11:25:02.373Z,8.90
2022-11-29T11:27:35.061Z,9.00
2022-11-29T11:30:07.193Z,8.15
2022-11-29T11:32:35.543Z,8.30
2022-11-29T11:35:04.211Z,8.15
2022-11-29T11:37:35.687Z,8.23
2022-11-29T11:40:28.967Z,9.48
2022-11-29T11:43:00.306Z,8.57
2022-11-29T11:45:35.010Z,8.33
2022-11-29T11:48:06.780Z,8.75
2022-11-29T11:50:38.688Z,8.77
2022-11-29T11:53:18.432Z,8.95
2022-11-29T11:55:56.565Z,8.65
2022-11-29T11:58:28.146Z,8.75
2022-11-29T12:01:06.189Z,9.43
2022-11-29T12:03:41.088Z,8.53
2022-11-29T12:06:28.133Z,8.00
2022-11-29T12:09:02.286Z,8.43
2022-11-29T12:11:38.492Z,8.05
2022-11-29T12:14:11.123Z,7.15
2022-11-29T12:16:41.614Z,6.85
2022-11-29T12:19:17.888Z,7.60
2022-11-29T12:21:52.557Z,8.60
2022-11-29T12:24:27.498Z,8.48
2022-11-29T12:26:58.518Z,11.02
2022-11-29T12:29:31.065Z,9.50
2022-11-29T12:32:09.108Z,10.95
2022-11-29T12:34:51.788Z,11.57
2022-11-29T12:37:24.705Z,11.85
2022-11-29T12:40:05.190Z,10.60
2022-11-29T12:42:45.632Z,10.15
2022-11-29T12:45:40.373Z,10.25
2022-11-29T12:48:21.355Z,9.82
2022-11-29T12:50:58.822Z,9.95
2022-11-29T12:53:38.099Z,9.60
2022-11-29T12:56:15.675Z,9.43
2022-11-29T12:58:54.440Z,8.75
2022-11-29T13:01:32.243Z,8.00
2022-11-29T13:04:09.274Z,9.88
2022-11-29T13:06:44.615Z,8.50
2022-11-29T13:09:47.424Z,8.40
2022-11-29T13:12:22.212Z,8.00
2022-11-29T13:14:57.337Z,8.18
2022-11-29T13:17:35.359Z,8.10
2022-11-29T13:20:17.967Z,7.57
2022-11-29T13:22:54.722Z,8.17
2022-11-29T13:25:29.274Z,8.75
2022-11-29T13:28:01.758Z,8.00
2022-11-29T13:30:30.025Z,8.20
2022-11-29T13:33:08.454Z,7.50
2022-11-29T13:35:43.212Z,7.55
2022-11-29T13:38:17.880Z,9.17
2022-11-29T13:40:55.580Z,7.55
2022-11-29T13:43:30.703Z,8.30
2022-11-29T13:46:05.572Z,8.93
2022-11-29T13:48:38.333Z,8.07
2022-11-29T13:51:30.962Z,8.85
2022-11-29T13:54:02.250Z,8.32
2022-11-29T13:56:36.622Z,9.10
2022-11-29T13:59:09.943Z,8.90
2022-11-29T14:01:47.390Z,8.50
2022-11-29T14:04:31.291Z,8.10
2022-11-29T14:07:08.752Z,8.40
2022-11-29T14:09:49.426Z,8.70
2022-11-29T14:12:41.761Z,9.75
2022-11-29T14:15:33.867Z,9.98
2022-11-29T14:18:03.457Z,8.40
2022-11-29T14:20:58.188Z,8.40
2022-11-29T14:23:38.249Z,9.13
2022-11-29T14:26:29.178Z,9.80
2022-11-29T14:28:58.510Z,12.75
2022-11-29T14:31:52.473Z,10.55
2022-11-29T14:34:38.961Z,10.85
2022-11-29T14:37:21.313Z,10.23
2022-11-29T14:39:52.275Z,10.02
2022-11-29T14:42:22.624Z,11.37
2022-11-29T14:44:53.743Z,10.10
2022-11-29T14:47:26.059Z,9.20
2022-11-29T14:49:56.710Z,10.30
2022-11-29T14:52:32.757Z,10.20
2022-11-29T14:55:07.317Z,9.17
2022-11-29T14:57:55.677Z,9.88
2022-11-29T15:00:25.802Z,10.60
2022-11-29T15:03:03.004Z,9.25
2022-11-29T15:05:34.534Z,10.27
2022-11-29T15:08:10.548Z,10.27
2022-11-29T15:10:43.220Z,9.63
2022-11-29T15:13:26.428Z,11.10
2022-11-29T15:16:22.325Z,11.20
2022-11-29T15:19:08.223Z,9.85
2022-11-29T15:21:43.719Z,11.20
2022-11-29T15:24:15.190Z,10.95
2022-11-29T15:26:56.493Z,10.10
2022-11-29T15:29:25.401Z,11.10
2022-11-29T15:31:55.633Z,10.63
2022-11-29T15:34:31.298Z,11.18
2022-11-29T15:36:59.816Z,10.68
2022-11-29T15:39:34.727Z,11.35
2022-11-29T15:42:05.575Z,10.70
2022-11-29T15:44:33.919Z,11.25
2022-11-29T15:47:22.023Z,10.55
2022-11-29T15:49:50.555Z,11.80
2022-11-29T15:52:25.732Z,10.25
2022-11-29T15:54:58.066Z,12.18
2022-11-29T15:57:28.720Z,12.50
2022-11-29T15:59:59.366Z,12.05
2022-11-29T16:02:29.505Z,11.52
2022-11-29T16:05:02.407Z,11.30
2022-11-29T16:07:32.436Z,11.85
2022-11-29T16:10:05.641Z,11.50
2022-11-29T16:12:34.082Z,11.05
2022-11-29T16:15:03.558Z,12.23
2022-11-29T16:17:34.970Z,11.07
2022-11-29T16:20:24.314Z,12.02
2022-11-29T16:23:12.500Z,11.18
2022-11-29T16:25:55.532Z,10.88
2022-11-29T16:28:24.699Z,11.80
2022-11-29T16:30:53.336Z,11.70
2022-11-29T16:33:25.654Z,11.75
2022-11-29T16:36:05.344Z,12.23
2022-11-29T16:38:34.312Z,12.40
2022-11-29T16:41:06.908Z,11.90
2022-11-29T16:43:53.357Z,11.57
2022-11-29T16:46:30.648Z,11.80
2022-11-29T16:49:00.872Z,10.30
2022-11-29T16:51:38.743Z,11.27
2022-11-29T16:54:27.698Z,10.90
2022-11-29T16:56:58.228Z,11.48
2022-11-29T16:59:28.543Z,11.10
2022-11-29T17:01:57.864Z,11.45
2022-11-29T17:04:26.355Z,11.90
2022-11-29T17:06:55.932Z,11.25
2022-11-29T17:09:26.781Z,11.05
2022-11-29T17:11:59.648Z,11.70
2022-11-29T17:14:28.898Z,11.70
2022-11-29T17:16:57.355Z,12.18
2022-11-29T17:19:26.219Z,12.02
2022-11-29T17:21:54.631Z,12.25
2022-11-29T17:24:24.140Z,10.75
2022-11-29T17:26:55.810Z,12.65
2022-11-29T17:29:25.637Z,12.48
2022-11-29T17:31:53.915Z,11.10
2022-11-29T17:34:23.080Z,11.27
2022-11-29T17:36:53.243Z,12.43
2022-11-29T17:39:22.682Z,11.35
2022-11-29T17:41:50.895Z,11.23
2022-11-29T17:44:19.179Z,11.63
2022-11-29T17:46:48.839Z,11.77
2022-11-29T17:49:19.974Z,12.20
2022-11-29T17:51:53.079Z,11.88
2022-11-29T17:54:22.245Z,12.00
2022-11-29T17:56:50.991Z,13.77
2022-11-29T17:59:19.547Z,12.75
2022-11-29T18:01:49.277Z,12.45
2022-11-29T18:04:17.654Z,12.80
2022-11-29T18:06:49.663Z,13.32
2022-11-29T18:09:20.360Z,14.13
2022-11-29T18:11:50.442Z,11.32
2022-11-29T18:14:20.845Z,11.88
2022-11-29T18:16:50.774Z,11.88
2022-11-29T18:19:20.890Z,11.00
2022-11-29T18:21:49.693Z,10.68
2022-11-29T18:24:18.540Z,12.20
2022-11-29T18:26:46.862Z,11.73
2022-11-29T18:29:16.144Z,11.63
2022-11-29T18:31:47.599Z,10.50
2022-11-29T18:34:18.431Z,11.90
2022-11-29T18:36:48.713Z,12.07
2022-11-29T18:39:18.580Z,11.35
2022-11-29T18:41:48.307Z,10.90
2022-11-29T18:44:18.927Z,11.55
2022-11-29T18:46:47.297Z,10.05
2022-11-29T18:49:18.628Z,11.02
2022-11-29T18:51:47.994Z,10.40
2022-11-29T18:54:19.243Z,10.70
2022-11-29T18:56:51.879Z,11.33
2022-11-29T18:59:22.317Z,10.30
2022-11-29T19:01:50.784Z,10.93
2022-11-29T19:04:22.404Z,10.10
2022-11-29T19:06:50.717Z,10.73
2022-11-29T19:09:22.141Z,11.75
2022-11-29T19:11:51.891Z,11.70
2022-11-29T19:14:20.721Z,11.32
2022-11-29T19:16:50.762Z,11.23
2022-11-29T19:19:20.432Z,11.32
2022-11-29T19:21:49.144Z,11.20
2022-11-29T19:24:18.531Z,10.55
2022-11-29T19:26:49.697Z,10.10
2022-11-29T19:29:18.429Z,11.57
2022-11-29T19:31:46.757Z,11.52
2022-11-29T19:34:15.278Z,11.40
2022-11-29T19:36:45.876Z,12.80
2022-11-29T19:39:16.225Z,12.68
2022-11-29T19:41:45.554Z,12.68
2022-11-29T19:44:14.109Z,12.27
2022-11-29T19:46:44.320Z,12.93
2022-11-29T19:49:12.868Z,12.70
2022-11-29T19:51:41.094Z,12.15
2022-11-29T19:54:11.929Z,12.65
2022-11-29T19:56:40.620Z,11.38
2022-11-29T19:59:09.358Z,13.00
2022-11-29T20:01:41.806Z,14.05
2022-11-29T20:04:12.116Z,12.75
2022-11-29T20:06:40.761Z,12.98
2022-11-29T20:09:10.960Z,12.18
2022-11-29T20:11:39.307Z,13.50
2022-11-29T20:14:09.253Z,13.98
2022-11-29T20:16:39.191Z,15.30
2022-11-29T20:19:12.401Z,13.75
2022-11-29T20:21:43.627Z,13.48
2022-11-29T20:24:15.273Z,12.63
2022-11-29T20:26:45.023Z,13.68
2022-11-29T20:29:14.945Z,13.07
2022-11-29T20:31:49.440Z,14.00
2022-11-29T20:34:19.626Z,14.55
2022-11-29T20:37:19.770Z,17.88
2022-11-29T20:39:55.655Z,17.63
2022-11-29T20:42:46.500Z,16.88
2022-11-29T20:45:16.358Z,15.50
2022-11-29T20:47:51.246Z,14.10
2022-11-29T20:50:23.491Z,14.40
2022-11-29T20:53:02.648Z,14.75
2022-11-29T20:55:32.458Z,14.43
2022-11-29T20:58:01.718Z,18.23
2022-11-29T21:00:30.051Z,15.98
2022-11-29T21:02:58.201Z,15.55
2022-11-29T21:05:26.543Z,14.90
2022-11-29T21:07:54.848Z,14.40
2022-11-29T21:10:23.209Z,14.67
2022-11-29T21:12:53.435Z,14.18
2022-11-29T21:15:22.633Z,15.23
2022-11-29T21:17:51.357Z,15.25
2022-11-29T21:20:22.442Z,15.70
2022-11-29T21:22:56.721Z,15.68
2022-11-29T21:25:34.881Z,14.63
2022-11-29T21:28:12.074Z,15.30
2022-11-29T21:30:41.083Z,15.32
2022-11-29T21:33:10.622Z,15.25
2022-11-29T21:35:41.095Z,15.60
2022-11-29T21:38:14.462Z,15.20
2022-11-29T21:40:42.675Z,14.57
2022-11-29T21:43:12.283Z,15.00
2022-11-29T21:45:40.516Z,15.73
2022-11-29T21:48:28.805Z,15.60
2022-11-29T21:50:57.626Z,15.50
2022-11-29T21:53:27.990Z,16.08
2022-11-29T21:56:00.035Z,15.25
2022-11-29T21:58:30.742Z,16.08
2022-11-29T22:01:06.343Z,17.35
2022-11-29T22:03:34.615Z,15.57
2022-11-29T22:06:04.459Z,16.20
2022-11-29T22:08:35.637Z,16.20
2022-11-29T22:11:05.306Z,15.15
2022-11-29T22:13:35.752Z,15.77
2022-11-29T22:16:08.697Z,15.87
2022-11-29T22:18:37.315Z,16.85
2022-11-29T22:21:07.445Z,16.13
2022-11-29T22:23:35.747Z,16.90
2022-11-29T22:26:06.269Z,14.35
2022-11-29T22:28:36.638Z,16.30
2022-11-29T22:31:06.398Z,15.50
2022-11-29T22:33:35.171Z,16.80
2022-11-29T22:36:05.449Z,15.50
2022-11-29T22:38:33.869Z,16.87
2022-11-29T22:41:02.603Z,16.85
2022-11-29T22:43:32.107Z,16.98
2022-11-29T22:46:10.036Z,16.30
2022-11-29T22:48:40.032Z,16.77
2022-11-29T22:51:09.966Z,15.38
2022-11-29T22:53:39.778Z,16.80
2022-11-29T22:56:10.211Z,17.10
2022-11-29T22:58:38.644Z,16.80
2022-11-29T23:01:10.640Z,16.45
2022-11-29T23:03:40.784Z,16.23
2022-11-29T23:06:11.415Z,15.80
2022-11-29T23:08:40.454Z,17.15
2022-11-29T23:11:11.456Z,17.95
2022-11-29T23:13:42.012Z,15.80
2022-11-29T23:16:14.403Z,17.27
2022-11-29T23:18:43.352Z,16.98
2022-11-29T23:21:13.856Z,15.40
2022-11-29T23:23:42.688Z,15.80
2022-11-29T23:26:18.512Z,17.55
2022-11-29T23:28:47.017Z,15.82
2022-11-29T23:31:16.809Z,16.75
2022-11-29T23:33:45.412Z,15.40
2022-11-29T23:36:14.368Z,17.40
2022-11-29T23:38:42.771Z,17.10
2022-11-29T23:41:11.688Z,16.95
2022-11-29T23:43:41.661Z,16.17
2022-11-29T23:46:11.929Z,16.33
2022-11-29T23:48:41.646Z,16.92
2022-11-29T23:51:10.663Z,16.50
2022-11-29T23:53:38.976Z,16.10
2022-11-29T23:56:09.339Z,16.33
2022-11-29T23:58:38.024Z,16.60
